Time;durP1;ratioP1;P1;durP2;ratioP2;P2;SDS_P1;SDS_P2;PMS_P1;PMS_P2;Temp;Humidity;BMP_temperature;BMP_pressure;BME280_temperature;BME280_humidity;BME280_pressure;Samples;Min_cycle;Max_cycle;Signal;HPM_P1;HPM_P2
2022/04/15 00:02:13;;;;;;;3.60;3.50;;;5.20;99.90;;;;;;6213993;28;20272;-75
2022/04/15 00:05:36;;;;;;;3.63;3.43;;;5.20;99.90;;;;;;6214009;28;20306;-75
2022/04/15 00:08:42;;;;;;;3.77;3.50;;;5.20;99.90;;;;;;6214248;28;20285;-75
2022/04/15 00:11:47;;;;;;;3.83;3.23;;;5.20;99.90;;;;;;6237513;28;20299;-75
2022/04/15 00:14:52;;;;;;;3.50;3.40;;;5.20;99.90;;;;;;6237786;28;20303;-75
2022/04/15 00:17:59;;;;;;;3.57;3.37;;;5.20;99.90;;;;;;6237482;28;20287;-75
2022/04/15 00:21:04;;;;;;;3.10;3.00;;;5.20;99.90;;;;;;6237851;28;20485;-75
2022/04/15 00:24:11;;;;;;;3.27;3.07;;;5.20;99.90;;;;;;6237476;28;20303;-75
2022/04/15 00:27:17;;;;;;;2.80;2.80;;;5.20;99.90;;;;;;6238265;28;20279;-76
2022/04/15 00:30:22;;;;;;;2.77;2.67;;;5.20;99.90;;;;;;6220366;28;20303;-75
2022/04/15 00:33:29;;;;;;;2.90;2.80;;;5.20;99.90;;;;;;6238362;28;20277;-75
2022/04/15 00:36:34;;;;;;;2.50;2.40;;;5.20;99.90;;;;;;6237021;28;20278;-75
2022/04/15 00:39:45;;;;;;;2.60;2.60;;;5.20;99.90;;;;;;6237103;28;20310;-75
2022/04/15 00:42:50;;;;;;;2.73;2.63;;;5.10;99.90;;;;;;6237628;28;20270;-74
2022/04/15 00:46:06;;;;;;;2.60;2.57;;;5.20;99.90;;;;;;6237258;28;20460;-76
2022/04/15 00:49:15;;;;;;;2.73;2.63;;;5.20;99.90;;;;;;6237639;28;20304;-75
2022/04/15 00:52:22;;;;;;;2.70;2.50;;;5.30;99.90;;;;;;6237288;28;20266;-75
2022/04/15 00:55:27;;;;;;;2.50;2.40;;;5.20;99.90;;;;;;6236810;28;20299;-74
2022/04/15 00:58:35;;;;;;;2.50;2.40;;;5.20;99.90;;;;;;6237181;28;20274;-75
2022/04/15 01:01:41;;;;;;;2.57;2.47;;;5.00;99.90;;;;;;6237269;28;20298;-75
2022/04/15 01:04:50;;;;;;;2.40;2.30;;;5.00;99.90;;;;;;6236526;28;20466;-75
2022/04/15 01:07:57;;;;;;;2.47;2.43;;;5.00;99.90;;;;;;6237307;28;20272;-75
2022/04/15 01:11:04;;;;;;;2.43;2.43;;;5.00;99.90;;;;;;6236834;28;20309;-75
2022/04/15 01:14:13;;;;;;;2.40;2.30;;;5.00;99.90;;;;;;6236602;28;20387;-75
2022/04/15 01:17:18;;;;;;;2.33;2.13;;;5.00;99.90;;;;;;6237064;28;20446;-75
2022/04/15 01:20:27;;;;;;;2.30;2.30;;;5.00;99.90;;;;;;6236578;28;20299;-75
2022/04/15 01:23:33;;;;;;;2.70;2.60;;;5.00;99.90;;;;;;6236527;28;20294;-76
2022/04/15 01:26:39;;;;;;;2.80;2.70;;;5.00;99.90;;;;;;6236845;28;20274;-75
2022/04/15 01:29:44;;;;;;;2.60;2.50;;;4.90;99.90;;;;;;6236423;28;20302;-75
2022/04/15 01:32:50;;;;;;;2.50;2.40;;;4.90;99.90;;;;;;6236718;28;20303;-75
2022/04/15 01:36:02;;;;;;;2.70;2.57;;;4.90;99.90;;;;;;6236528;28;20299;-77
2022/04/15 01:39:10;;;;;;;2.53;2.43;;;4.90;99.90;;;;;;6236500;28;20518;-76
2022/04/15 01:42:16;;;;;;;3.00;2.90;;;4.90;99.90;;;;;;6218862;28;20295;-76
2022/04/15 01:45:21;;;;;;;3.00;2.77;;;4.90;99.90;;;;;;6236036;28;20295;-76
2022/04/15 01:48:26;;;;;;;2.53;2.53;;;4.90;99.90;;;;;;6218971;28;20270;-76
2022/04/15 01:51:35;;;;;;;3.30;3.07;;;4.70;99.90;;;;;;6230512;28;20288;-76
2022/04/15 01:54:41;;;;;;;2.77;2.57;;;4.70;99.90;;;;;;6212168;28;20300;-76
2022/04/15 01:57:47;;;;;;;3.03;2.93;;;4.70;99.90;;;;;;6212268;28;20279;-76
2022/04/15 02:00:53;;;;;;;2.70;2.60;;;4.70;99.90;;;;;;6212108;28;20308;-76
2022/04/15 02:03:58;;;;;;;3.20;2.90;;;4.70;99.90;;;;;;6216881;28;20292;-76
2022/04/15 02:07:04;;;;;;;2.80;2.60;;;4.70;99.90;;;;;;6217205;28;20307;-76
2022/04/15 02:10:14;;;;;;;2.50;2.50;;;4.60;99.90;;;;;;6227197;28;20305;-76
2022/04/15 02:13:19;;;;;;;2.70;2.60;;;4.60;99.90;;;;;;6224155;28;20275;-75
2022/04/15 02:16:24;;;;;;;3.10;2.63;;;4.60;99.90;;;;;;6240661;28;20302;-75
2022/04/15 02:19:29;;;;;;;2.30;2.20;;;4.60;99.90;;;;;;6240552;28;20296;-76
2022/04/15 02:22:35;;;;;;;2.60;2.40;;;4.60;99.90;;;;;;6240467;28;20298;-76
2022/04/15 02:25:42;;;;;;;2.33;2.23;;;4.50;99.90;;;;;;6240694;28;20290;-76
2022/04/15 02:28:47;;;;;;;1.87;1.87;;;4.60;99.90;;;;;;6240623;28;20275;-76
2022/04/15 02:31:52;;;;;;;2.53;2.40;;;4.60;99.90;;;;;;6240931;28;20277;-75
2022/04/15 02:34:57;;;;;;;2.20;2.10;;;4.60;99.90;;;;;;6240630;28;20298;-76
2022/04/15 02:38:03;;;;;;;2.00;2.00;;;4.50;99.90;;;;;;6240833;28;20282;-76
2022/04/15 02:41:11;;;;;;;3.30;2.00;;;4.50;99.90;;;;;;6240290;28;20326;-76
2022/04/15 02:44:17;;;;;;;1.97;1.87;;;4.50;99.90;;;;;;6239851;28;20299;-76
2022/04/15 02:47:22;;;;;;;2.50;1.90;;;4.40;99.90;;;;;;6240792;28;20457;-76
2022/04/15 02:50:29;;;;;;;1.80;1.70;;;4.50;99.90;;;;;;6222604;28;20298;-76
2022/04/15 02:53:34;;;;;;;1.83;1.50;;;4.40;99.90;;;;;;6239590;28;20452;-76
2022/04/15 02:56:41;;;;;;;1.30;1.30;;;4.40;99.90;;;;;;6240482;28;20270;-75
2022/04/15 02:59:46;;;;;;;1.30;1.30;;;4.40;99.90;;;;;;6240048;28;20306;-76
2022/04/15 03:02:51;;;;;;;1.40;1.40;;;4.40;99.90;;;;;;6226805;28;20469;-76
2022/04/15 03:05:57;;;;;;;1.40;1.00;;;4.40;99.90;;;;;;6239680;28;20562;-76
2022/04/15 03:09:03;;;;;;;2.63;1.20;;;4.40;99.90;;;;;;6239747;28;20302;-76
2022/04/15 03:12:11;;;;;;;1.20;1.20;;;4.40;99.90;;;;;;6238111;28;20275;-76
2022/04/15 03:15:17;;;;;;;1.37;1.27;;;4.40;99.90;;;;;;6240017;28;20270;-76
2022/04/15 03:18:23;;;;;;;1.27;1.17;;;4.50;99.90;;;;;;6239090;28;20299;-76
2022/04/15 03:21:28;;;;;;;1.20;1.20;;;4.40;99.90;;;;;;6239987;28;20315;-75
2022/04/15 03:24:33;;;;;;;1.40;1.30;;;4.50;99.90;;;;;;6239176;28;20302;-74
2022/04/15 03:27:40;;;;;;;1.40;1.37;;;4.50;99.90;;;;;;6238893;28;20613;-75
2022/04/15 03:30:45;;;;;;;1.50;1.50;;;4.50;99.90;;;;;;6239725;28;20277;-75
2022/04/15 03:33:51;;;;;;;1.37;1.30;;;4.40;99.90;;;;;;6238916;28;20300;-75
2022/04/15 03:36:56;;;;;;;1.53;1.50;;;4.40;99.90;;;;;;6239531;28;20267;-75
2022/04/15 03:40:01;;;;;;;1.83;1.40;;;4.30;99.90;;;;;;6238470;28;20278;-74
2022/04/15 03:43:09;;;;;;;1.33;1.33;;;4.30;99.90;;;;;;6238710;28;20304;-75
2022/04/15 03:46:14;;;;;;;1.30;1.30;;;4.20;99.90;;;;;;6238965;28;20278;-75
2022/04/15 03:49:20;;;;;;;1.57;1.57;;;4.00;99.90;;;;;;6238492;28;20306;-74
2022/04/15 03:52:25;;;;;;;1.67;1.57;;;4.00;99.90;;;;;;6238658;28;20302;-75
2022/04/15 03:55:31;;;;;;;1.70;1.60;;;4.00;99.90;;;;;;6239167;28;20286;-75
2022/04/15 03:58:37;;;;;;;1.70;1.60;;;4.00;99.90;;;;;;6238311;28;20301;-75
2022/04/15 04:01:43;;;;;;;1.73;1.67;;;4.00;99.90;;;;;;6239167;28;20293;-75
2022/04/15 04:04:48;;;;;;;1.93;1.77;;;4.00;99.90;;;;;;6238375;28;20298;-75
2022/04/15 04:07:53;;;;;;;1.57;1.57;;;4.00;99.90;;;;;;6237896;28;20297;-75
2022/04/15 04:10:58;;;;;;;1.60;1.50;;;4.00;99.90;;;;;;6238480;28;20290;-75
2022/04/15 04:14:05;;;;;;;1.80;1.70;;;4.00;99.90;;;;;;6237327;28;20310;-75
2022/04/15 04:17:11;;;;;;;1.77;1.67;;;4.00;99.90;;;;;;6237396;28;20274;-75
2022/04/15 04:20:17;;;;;;;1.70;1.60;;;3.90;99.90;;;;;;6237967;28;20274;-75
2022/04/15 04:23:23;;;;;;;2.23;1.47;;;3.90;99.90;;;;;;6237324;28;20302;-75
2022/04/15 04:26:28;;;;;;;2.10;1.60;;;4.00;99.90;;;;;;6238121;28;20275;-75
2022/04/15 04:29:35;;;;;;;1.90;1.80;;;4.10;99.90;;;;;;6237921;28;20300;-75
2022/04/15 04:32:40;;;;;;;1.90;1.80;;;4.00;99.90;;;;;;6237312;28;20302;-75
2022/04/15 04:35:45;;;;;;;1.80;1.80;;;4.00;99.90;;;;;;6237654;28;20374;-75
2022/04/15 04:38:50;;;;;;;1.70;1.60;;;4.00;99.90;;;;;;6237521;28;20297;-75
2022/04/15 04:41:57;;;;;;;2.20;2.10;;;4.00;99.90;;;;;;6237447;28;20276;-75
2022/04/15 04:45:05;;;;;;;1.90;1.90;;;4.10;99.90;;;;;;6237109;28;20276;-75
2022/04/15 04:48:11;;;;;;;1.83;1.73;;;4.10;99.90;;;;;;6237257;28;20297;-75
2022/04/15 04:51:16;;;;;;;1.77;1.77;;;4.00;99.90;;;;;;6237843;28;20297;-75
2022/04/15 04:54:21;;;;;;;2.00;2.00;;;3.90;99.90;;;;;;6237145;28;20307;-75
2022/04/15 04:57:26;;;;;;;1.70;1.70;;;4.00;99.90;;;;;;6219446;28;20614;-75
2022/04/15 05:00:33;;;;;;;1.73;1.63;;;4.00;99.90;;;;;;6237626;28;20273;-76
2022/04/15 05:03:38;;;;;;;1.73;1.73;;;4.00;99.90;;;;;;6236895;28;20300;-76
2022/04/15 05:06:43;;;;;;;2.07;1.97;;;4.10;99.90;;;;;;6237707;28;20274;-76
2022/04/15 05:09:49;;;;;;;2.63;1.90;;;4.10;99.90;;;;;;6232836;28;20310;-77
2022/04/15 05:12:54;;;;;;;1.90;1.90;;;4.20;99.90;;;;;;6212698;28;20294;-76
2022/04/15 05:16:01;;;;;;;2.07;1.97;;;4.30;99.90;;;;;;6212530;28;20311;-76
2022/04/15 05:19:06;;;;;;;2.00;1.90;;;4.20;99.90;;;;;;6212179;28;20296;-76
2022/04/15 05:22:13;;;;;;;2.20;2.00;;;4.30;99.90;;;;;;6212178;28;20270;-76
2022/04/15 05:25:18;;;;;;;2.10;1.80;;;4.30;99.90;;;;;;6212433;28;20299;-76
2022/04/15 05:28:24;;;;;;;2.70;1.90;;;4.30;99.90;;;;;;6211950;28;20298;-75
2022/04/15 05:31:31;;;;;;;2.90;1.80;;;4.30;99.90;;;;;;6212248;28;20279;-76
2022/04/15 05:34:36;;;;;;;2.17;2.07;;;4.40;99.90;;;;;;6210240;28;20307;-76
2022/04/15 05:37:41;;;;;;;1.73;1.67;;;4.40;99.90;;;;;;6212133;28;20475;-76
2022/04/15 05:40:46;;;;;;;1.70;1.70;;;4.40;99.90;;;;;;6212281;28;20275;-76
2022/04/15 05:43:52;;;;;;;1.60;1.60;;;4.40;99.90;;;;;;6211994;28;20299;-76
2022/04/15 05:46:59;;;;;;;1.67;1.67;;;4.30;99.90;;;;;;6212317;28;20462;-75
2022/04/15 05:50:05;;;;;;;1.80;1.80;;;4.40;99.90;;;;;;6211108;28;20283;-76
2022/04/15 05:53:13;;;;;;;1.60;1.60;;;4.60;99.90;;;;;;6211797;28;20303;-76
2022/04/15 05:56:19;;;;;;;1.70;1.60;;;4.50;99.90;;;;;;6212391;28;20574;-76
2022/04/15 05:59:24;;;;;;;1.70;1.40;;;4.60;99.90;;;;;;6211854;28;20296;-76
2022/04/15 06:02:30;;;;;;;1.40;1.40;;;4.60;99.90;;;;;;6210958;28;20329;-76
2022/04/15 06:05:36;;;;;;;1.30;1.30;;;4.60;99.90;;;;;;6212191;28;20599;-76
2022/04/15 06:08:42;;;;;;;1.43;1.37;;;4.60;99.90;;;;;;6211716;28;20300;-76
2022/04/15 06:11:52;;;;;;;1.40;1.40;;;4.80;99.90;;;;;;6233632;28;20298;-75
2022/04/15 06:14:57;;;;;;;1.20;1.20;;;4.80;99.90;;;;;;6235834;28;20298;-77
2022/04/15 06:18:05;;;;;;;1.33;1.30;;;4.80;99.90;;;;;;6235810;28;20480;-76
2022/04/15 06:21:10;;;;;;;1.30;1.30;;;4.70;99.90;;;;;;6236135;28;20461;-76
2022/04/15 06:24:15;;;;;;;1.20;1.20;;;4.70;99.90;;;;;;6235685;28;20303;-76
2022/04/15 06:27:20;;;;;;;1.73;1.10;;;4.60;99.90;;;;;;6235430;28;20438;-76
2022/04/15 06:30:27;;;;;;;1.10;1.10;;;4.50;99.90;;;;;;6236293;28;20275;-76
2022/04/15 06:33:33;;;;;;;1.27;1.17;;;4.50;99.90;;;;;;6235301;28;20300;-76
2022/04/15 06:36:39;;;;;;;1.20;1.20;;;4.60;99.90;;;;;;6236028;28;20563;-76
2022/04/15 06:39:50;;;;;;;1.10;1.10;;;4.60;99.90;;;;;;6235475;28;20298;-76
2022/04/15 06:42:55;;;;;;;1.20;1.20;;;4.60;99.90;;;;;;6235542;28;20333;-75
2022/04/15 06:46:03;;;;;;;0.90;0.90;;;4.60;99.90;;;;;;6236540;28;20548;-76
2022/04/15 06:49:09;;;;;;;1.00;1.00;;;4.60;99.90;;;;;;6239750;28;20299;-76
2022/04/15 06:52:15;;;;;;;0.97;0.97;;;4.60;99.90;;;;;;6240088;28;20275;-76
2022/04/15 06:55:20;;;;;;;1.07;1.07;;;4.50;99.90;;;;;;6240364;28;20278;-76
2022/04/15 06:58:25;;;;;;;1.00;1.00;;;4.40;99.90;;;;;;6239841;28;20560;-76
2022/04/15 07:01:32;;;;;;;1.00;1.00;;;4.30;99.90;;;;;;6239841;28;20275;-76
2022/04/15 07:04:39;;;;;;;0.90;0.90;;;4.50;99.90;;;;;;6239361;28;20319;-76
2022/04/15 07:07:44;;;;;;;0.90;0.90;;;5.10;99.90;;;;;;6239293;28;20299;-76
2022/04/15 07:10:50;;;;;;;0.90;0.90;;;5.30;99.90;;;;;;6227599;28;20295;-76
2022/04/15 07:13:55;;;;;;;0.90;0.90;;;5.50;99.90;;;;;;6215053;28;20599;-76
2022/04/15 07:17:00;;;;;;;0.90;0.90;;;6.60;99.90;;;;;;6214898;28;20279;-76
2022/04/15 07:20:09;;;;;;;0.90;0.90;;;6.30;99.90;;;;;;6215399;28;20276;-76
2022/04/15 07:23:16;;;;;;;1.63;0.90;;;5.70;99.90;;;;;;6215005;28;20304;-76
2022/04/15 07:26:22;;;;;;;1.33;0.83;;;5.30;99.90;;;;;;6215553;28;20314;-76
2022/04/15 07:29:28;;;;;;;0.93;0.93;;;5.20;99.90;;;;;;6215049;28;20300;-76
2022/04/15 07:32:33;;;;;;;0.70;0.70;;;5.10;99.90;;;;;;6214750;28;20300;-76
2022/04/15 07:35:40;;;;;;;1.00;1.00;;;5.20;99.90;;;;;;6215258;28;20279;-76
2022/04/15 07:38:46;;;;;;;1.00;1.00;;;5.10;99.90;;;;;;6214325;28;20303;-76
2022/04/15 07:41:52;;;;;;;0.80;0.80;;;5.30;99.90;;;;;;6214783;28;20280;-76
2022/04/15 07:44:57;;;;;;;0.90;0.90;;;5.40;99.90;;;;;;6214234;28;20302;-76
2022/04/15 07:48:02;;;;;;;1.33;1.20;;;5.40;99.90;;;;;;6212867;28;20301;-76
2022/04/15 07:51:09;;;;;;;0.93;0.93;;;5.30;99.90;;;;;;6214863;28;20280;-76
2022/04/15 07:54:16;;;;;;;1.17;1.00;;;5.40;99.90;;;;;;6214067;28;20303;-76
2022/04/15 07:57:26;;;;;;;1.73;1.03;;;5.40;99.90;;;;;;6228753;28;20295;-76
2022/04/15 08:00:34;;;;;;;0.90;0.90;;;5.50;99.90;;;;;;6214676;28;20279;-76
2022/04/15 08:03:40;;;;;;;0.93;0.93;;;5.40;99.90;;;;;;6214442;28;20473;-76
2022/04/15 08:06:47;;;;;;;0.70;0.70;;;5.30;99.90;;;;;;6213109;28;20450;-77
2022/04/15 08:09:56;;;;;;;0.90;0.90;;;5.30;99.90;;;;;;6220010;28;20307;-77
2022/04/15 08:13:03;;;;;;;0.80;0.80;;;5.40;99.90;;;;;;6238012;28;20291;-76
2022/04/15 08:16:11;;;;;;;1.00;1.00;;;5.40;99.90;;;;;;6238534;28;20280;-77
2022/04/15 08:19:18;;;;;;;0.90;0.90;;;5.50;99.90;;;;;;6238113;28;20474;-77
2022/04/15 08:22:24;;;;;;;2.10;0.90;;;5.50;99.90;;;;;;6237757;28;20298;-75
2022/04/15 08:25:29;;;;;;;1.00;1.00;;;5.50;99.90;;;;;;6238119;28;20478;-77
2022/04/15 08:28:34;;;;;;;1.00;1.00;;;5.50;99.90;;;;;;6236621;28;20378;-75
2022/04/15 08:31:39;;;;;;;0.80;0.80;;;5.60;99.90;;;;;;6237953;28;20324;-77
2022/04/15 08:34:45;;;;;;;0.80;0.80;;;5.70;99.90;;;;;;6237586;28;20307;-75
2022/04/15 08:37:51;;;;;;;1.00;1.00;;;5.80;99.90;;;;;;6237081;28;20343;-76
2022/04/15 08:40:58;;;;;;;1.37;1.00;;;5.80;99.90;;;;;;6237947;28;20280;-77
2022/04/15 08:44:05;;;;;;;1.20;1.07;;;5.90;99.90;;;;;;6237098;28;20306;-76
2022/04/15 08:47:12;;;;;;;1.00;1.00;;;5.90;99.90;;;;;;6236769;28;20300;-76
2022/04/15 08:50:18;;;;;;;0.90;0.90;;;6.10;99.90;;;;;;6237159;28;20269;-76
2022/04/15 08:53:24;;;;;;;0.77;0.77;;;6.10;99.90;;;;;;6236854;28;20308;-76
2022/04/15 08:56:30;;;;;;;0.80;0.80;;;6.00;99.90;;;;;;6237500;28;20284;-76
2022/04/15 08:59:35;;;;;;;1.03;0.87;;;6.10;99.90;;;;;;6237057;28;20301;-77
2022/04/15 09:02:41;;;;;;;1.00;1.00;;;6.20;99.90;;;;;;6236872;28;20288;-76
2022/04/15 09:05:51;;;;;;;0.93;0.90;;;6.10;99.90;;;;;;6237168;28;20292;-76
2022/04/15 09:09:03;;;;;;;0.90;0.90;;;6.10;99.90;;;;;;6219278;28;20307;-75
2022/04/15 09:12:16;;;;;;;0.90;0.90;;;6.10;99.90;;;;;;6212432;28;20265;-76
2022/04/15 09:15:22;;;;;;;0.90;0.80;;;6.30;99.90;;;;;;6212899;28;20272;-76
2022/04/15 09:18:35;;;;;;;2.47;0.80;;;6.30;99.90;;;;;;6212259;28;20313;-76
2022/04/15 09:21:52;;;;;;;0.90;0.90;;;6.30;99.90;;;;;;6213120;28;20277;-76
2022/04/15 09:24:59;;;;;;;0.80;0.80;;;6.30;99.90;;;;;;6212224;28;20320;-76
2022/04/15 09:28:06;;;;;;;0.90;0.90;;;6.40;99.90;;;;;;6212115;28;20305;-75
2022/04/15 09:31:14;;;;;;;0.80;0.80;;;6.40;99.90;;;;;;6212918;28;20277;-76
2022/04/15 09:34:20;;;;;;;0.80;0.80;;;6.40;99.90;;;;;;6210760;28;20483;-77
2022/04/15 09:37:27;;;;;;;0.80;0.80;;;6.50;99.90;;;;;;6212360;28;20296;-76
2022/04/15 09:40:37;;;;;;;0.80;0.80;;;6.70;99.90;;;;;;6212092;28;20273;-76
2022/04/15 09:43:50;;;;;;;0.83;0.83;;;6.90;99.90;;;;;;6211991;28;20296;-77
2022/04/15 09:46:55;;;;;;;0.88;0.88;;;6.90;99.90;;;;;;6212599;28;20293;-77
2022/04/15 09:50:03;;;;;;;0.90;0.90;;;6.90;99.90;;;;;;6210123;28;20289;-77
2022/04/15 09:53:12;;;;;;;0.83;0.83;;;7.00;99.90;;;;;;6212221;28;20310;-77
2022/04/15 09:56:19;;;;;;;0.93;0.90;;;7.10;99.90;;;;;;6212225;28;20278;-77
2022/04/15 09:59:26;;;;;;;0.80;0.80;;;7.10;98.80;;;;;;6211998;28;20297;-76
2022/04/15 10:02:36;;;;;;;0.90;0.90;;;7.10;97.50;;;;;;6211894;28;20331;-77
2022/04/15 10:05:43;;;;;;;0.80;0.80;;;7.10;98.40;;;;;;6212489;28;20277;-77
2022/04/15 10:08:48;;;;;;;0.87;0.70;;;7.20;98.60;;;;;;6211509;28;20320;-77
2022/04/15 10:11:56;;;;;;;0.77;0.77;;;7.30;97.70;;;;;;6232533;28;20292;-77
2022/04/15 10:15:02;;;;;;;1.10;0.80;;;7.40;97.80;;;;;;6235175;28;20280;-77
2022/04/15 10:18:09;;;;;;;0.93;0.80;;;7.70;97.60;;;;;;6235783;28;20300;-77
2022/04/15 10:21:14;;;;;;;0.80;0.77;;;7.80;96.90;;;;;;6236932;28;20272;-75
2022/04/15 10:24:19;;;;;;;0.83;0.83;;;7.80;96.60;;;;;;6240400;28;20296;-77
2022/04/15 10:27:29;;;;;;;0.77;0.77;;;7.70;96.70;;;;;;6239930;28;20582;-77
2022/04/15 10:30:35;;;;;;;0.80;0.80;;;7.60;96.90;;;;;;6241070;28;20288;-77
2022/04/15 10:33:41;;;;;;;0.80;0.80;;;7.60;96.10;;;;;;6239817;28;20297;-75
2022/04/15 10:36:49;;;;;;;0.70;0.70;;;7.70;95.10;;;;;;6223060;28;20307;-75
2022/04/15 10:40:01;;;;;;;0.80;0.80;;;7.80;94.80;;;;;;6239576;28;20277;-76
2022/04/15 10:43:21;;;;;;;1.50;0.85;;;7.80;94.70;;;;;;6240109;28;20300;-75
2022/04/15 10:46:30;;;;;;;1.40;1.10;;;8.00;95.00;;;;;;6240820;28;20273;-76
2022/04/15 10:49:36;;;;;;;1.67;0.85;;;8.00;94.30;;;;;;6240255;28;20296;-77
2022/04/15 10:52:41;;;;;;;0.60;0.60;;;8.10;92.80;;;;;;6240037;28;20470;-77
2022/04/15 10:55:52;;;;;;;0.65;0.65;;;8.10;88.30;;;;;;6240424;28;20268;-77
2022/04/15 11:02:38;;;;;;;1.48;0.60;;;8.40;82.40;;;;;;6222336;28;20287;-77
2022/04/15 11:05:55;;;;;;;1.27;0.60;;;8.40;76.00;;;;;;6222673;28;20462;-77
2022/04/15 11:09:15;;;;;;;2.10;0.85;;;8.60;74.20;;;;;;6239515;28;20300;-77
2022/04/15 11:12:31;;;;;;;0.60;0.60;;;8.50;69.10;;;;;;6214742;28;20292;-77
2022/04/15 11:15:59;;;;;;;1.58;0.70;;;8.40;66.70;;;;;;6215350;28;20269;-77
2022/04/15 11:19:05;;;;;;;0.70;0.70;;;8.50;69.00;;;;;;6215104;28;20300;-77
2022/04/15 11:22:10;;;;;;;0.80;0.80;;;8.60;67.80;;;;;;6214184;28;20269;-77
2022/04/15 11:25:16;;;;;;;1.17;0.68;;;8.60;69.80;;;;;;6215241;28;20277;-77
2022/04/15 11:28:21;;;;;;;0.70;0.70;;;8.60;68.40;;;;;;6214530;28;20301;-77
2022/04/15 11:31:29;;;;;;;0.70;0.70;;;8.60;69.00;;;;;;6215247;28;20324;-77
2022/04/15 11:34:36;;;;;;;0.73;0.73;;;8.70;67.10;;;;;;6213265;28;20317;-77
2022/04/15 11:37:41;;;;;;;0.70;0.70;;;8.70;67.60;;;;;;6214127;28;20297;-77
2022/04/15 11:40:46;;;;;;;0.70;0.70;;;8.70;66.60;;;;;;6214656;28;20439;-77
2022/04/15 11:43:57;;;;;;;0.85;0.85;;;8.80;66.40;;;;;;6214137;28;20301;-77
2022/04/15 11:47:18;;;;;;;0.70;0.70;;;8.80;64.20;;;;;;6214326;28;20282;-78
2022/04/15 11:50:26;;;;;;;2.65;0.80;;;8.80;61.20;;;;;;6214399;28;20273;-77
2022/04/15 11:53:31;;;;;;;1.17;0.70;;;8.90;63.80;;;;;;6213740;28;20297;-78
2022/04/15 11:56:37;;;;;;;1.27;0.82;;;9.00;62.70;;;;;;6214416;28;20560;-77
2022/04/15 11:59:44;;;;;;;1.27;0.60;;;8.90;59.80;;;;;;6214052;28;20301;-77
2022/04/15 12:02:50;;;;;;;3.05;0.90;;;8.90;60.10;;;;;;6213718;28;20288;-76
2022/04/15 12:05:58;;;;;;;0.70;0.70;;;8.90;60.40;;;;;;6212947;28;20273;-77
2022/04/15 12:09:03;;;;;;;0.80;0.80;;;8.90;58.90;;;;;;6213223;28;20306;-77
2022/04/15 12:12:29;;;;;;;0.60;0.60;;;9.00;57.90;;;;;;6189470;28;20476;-77
2022/04/15 12:15:34;;;;;;;0.90;0.68;;;9.00;57.10;;;;;;6189973;28;20270;-77
2022/04/15 12:18:41;;;;;;;0.60;0.60;;;9.00;57.30;;;;;;6189869;28;20301;-76
2022/04/15 12:21:48;;;;;;;0.60;0.60;;;9.00;56.90;;;;;;6190310;28;20278;-77
2022/04/15 12:25:08;;;;;;;0.68;0.68;;;9.00;55.30;;;;;;6189688;28;20302;-77
2022/04/15 12:31:36;;;;;;;0.70;0.70;;;9.10;55.00;;;;;;6189346;28;20274;-77
2022/04/15 12:34:43;;;;;;;0.70;0.70;;;9.10;54.60;;;;;;6189248;28;20297;-76
2022/04/15 12:37:50;;;;;;;0.70;0.70;;;9.10;55.50;;;;;;6188844;28;20314;-77
2022/04/15 12:41:01;;;;;;;1.50;0.70;;;9.20;55.80;;;;;;6189416;28;20273;-77
2022/04/15 12:44:19;;;;;;;1.13;0.77;;;9.20;55.80;;;;;;6188778;28;20302;-77
2022/04/15 12:47:26;;;;;;;1.48;0.70;;;9.20;55.20;;;;;;6188429;28;20461;-77
2022/04/15 12:50:36;;;;;;;0.68;0.68;;;9.20;55.50;;;;;;6189291;28;20298;-77
2022/04/15 12:53:43;;;;;;;0.80;0.80;;;9.20;54.90;;;;;;6188678;28;20305;-77
2022/04/15 12:56:58;;;;;;;0.85;0.85;;;9.20;55.20;;;;;;6189029;28;20274;-77
2022/04/15 13:00:07;;;;;;;2.13;0.75;;;9.30;55.40;;;;;;6187914;28;20281;-76
2022/04/15 13:03:17;;;;;;;0.93;0.90;;;9.30;54.20;;;;;;6188035;28;20298;-77
2022/04/15 13:06:24;;;;;;;0.90;0.90;;;9.30;53.80;;;;;;6188937;28;20281;-77
2022/04/15 13:09:30;;;;;;;0.90;0.90;;;9.30;54.10;;;;;;6191356;28;20372;-77
2022/04/15 13:12:35;;;;;;;0.80;0.80;;;9.40;53.90;;;;;;6236340;28;20304;-76
2022/04/15 13:15:41;;;;;;;0.65;0.65;;;9.30;53.20;;;;;;6237441;28;20272;-77
2022/04/15 13:18:47;;;;;;;1.65;0.70;;;9.40;53.20;;;;;;6235659;28;20296;-77
2022/04/15 13:21:54;;;;;;;0.82;0.70;;;9.40;52.00;;;;;;6219973;28;20572;-77
2022/04/15 13:24:59;;;;;;;0.85;0.85;;;9.40;52.30;;;;;;6236424;28;20288;-76
2022/04/15 13:28:06;;;;;;;0.70;0.70;;;9.40;51.70;;;;;;6236463;28;20299;-77
2022/04/15 13:31:11;;;;;;;0.63;0.63;;;9.40;52.20;;;;;;6236836;28;20292;-77
2022/04/15 13:34:17;;;;;;;0.90;0.90;;;9.40;51.80;;;;;;6218811;28;20303;-76
2022/04/15 13:37:24;;;;;;;0.98;0.75;;;9.40;52.00;;;;;;6236002;28;20308;-77
2022/04/15 13:40:29;;;;;;;0.93;0.93;;;9.40;52.50;;;;;;6236959;28;20440;-77
2022/04/15 13:43:35;;;;;;;0.60;0.60;;;9.40;52.50;;;;;;6236116;28;20300;-77
2022/04/15 13:46:40;;;;;;;1.08;0.80;;;9.40;51.90;;;;;;6236735;28;20277;-77
2022/04/15 13:49:48;;;;;;;0.80;0.80;;;9.40;52.20;;;;;;6235756;28;20296;-77
2022/04/15 13:56:39;;;;;;;1.00;0.80;;;9.50;52.10;;;;;;6235930;28;20288;-77
2022/04/15 13:59:44;;;;;;;0.70;0.70;;;9.50;51.80;;;;;;6235936;28;20305;-77
2022/04/15 14:02:49;;;;;;;1.10;1.08;;;9.40;51.80;;;;;;6236066;28;20292;-77
2022/04/15 14:05:55;;;;;;;0.70;0.70;;;9.50;50.80;;;;;;6236139;28;20559;-77
2022/04/15 14:09:02;;;;;;;0.60;0.60;;;9.40;50.00;;;;;;6235916;28;20300;-77
2022/04/15 14:12:08;;;;;;;0.60;0.60;;;9.40;50.00;;;;;;6235988;28;20575;-76
2022/04/15 14:15:13;;;;;;;0.85;0.63;;;9.40;49.30;;;;;;6235924;28;20268;-77
2022/04/15 14:18:24;;;;;;;0.75;0.75;;;9.40;50.90;;;;;;6235627;28;20305;-77
2022/04/15 14:21:29;;;;;;;0.75;0.75;;;9.40;49.80;;;;;;6235538;28;20272;-77
2022/04/15 14:24:37;;;;;;;0.65;0.65;;;9.40;49.80;;;;;;6235996;28;20297;-77
2022/04/15 14:27:42;;;;;;;3.50;0.82;;;9.40;49.80;;;;;;6235637;28;20292;-77
2022/04/15 14:30:47;;;;;;;0.80;0.80;;;9.40;50.30;;;;;;6236307;28;20288;-77
2022/04/15 14:33:52;;;;;;;0.60;0.60;;;9.40;49.20;;;;;;6235630;28;20583;-76
2022/04/15 14:36:58;;;;;;;0.60;0.60;;;9.40;49.10;;;;;;6235859;28;20276;-76
2022/04/15 14:40:06;;;;;;;0.68;0.68;;;9.30;48.60;;;;;;6234686;28;20394;-77
2022/04/15 14:43:14;;;;;;;4.75;0.80;;;9.40;47.80;;;;;;6235529;28;20296;-76
2022/04/15 14:46:19;;;;;;;1.13;0.80;;;9.40;48.60;;;;;;6218384;28;20269;-77
2022/04/15 14:49:25;;;;;;;0.70;0.70;;;9.40;48.20;;;;;;6235079;28;20304;-76
2022/04/15 14:52:30;;;;;;;0.82;0.82;;;9.30;48.00;;;;;;6234740;28;20306;-76
2022/04/15 14:55:37;;;;;;;0.98;0.70;;;9.40;48.00;;;;;;6235668;28;20272;-76
2022/04/15 14:58:43;;;;;;;1.08;0.85;;;9.30;46.60;;;;;;6234995;28;20301;-76
2022/04/15 15:01:48;;;;;;;0.70;0.70;;;9.30;47.90;;;;;;6235998;28;20273;-76
2022/04/15 15:04:54;;;;;;;0.90;0.90;;;9.30;48.20;;;;;;6235484;28;20296;-75
2022/04/15 15:07:59;;;;;;;1.95;0.80;;;9.30;47.50;;;;;;6236953;28;20295;-76
2022/04/15 15:11:07;;;;;;;0.88;0.88;;;9.30;48.40;;;;;;6225467;28;20301;-76
2022/04/15 15:14:14;;;;;;;0.77;0.77;;;9.20;47.30;;;;;;6215386;28;20301;-75
2022/04/15 15:17:20;;;;;;;0.80;0.80;;;9.20;46.60;;;;;;6215257;28;20313;-77
2022/04/15 15:20:25;;;;;;;0.82;0.82;;;9.20;47.30;;;;;;6216036;28;20273;-76
2022/04/15 15:23:30;;;;;;;0.70;0.70;;;9.20;47.20;;;;;;6215735;28;20297;-75
2022/04/15 15:30:00;;;;;;;1.33;1.00;;;9.10;47.40;;;;;;6214506;28;20277;-76
2022/04/15 15:33:06;;;;;;;0.73;0.73;;;9.10;48.60;;;;;;6214880;28;20301;-76
2022/04/15 15:36:13;;;;;;;1.40;0.80;;;9.00;49.60;;;;;;6215024;28;20576;-76
2022/04/15 15:39:18;;;;;;;1.35;0.80;;;9.00;49.10;;;;;;6214951;28;20519;-76
2022/04/15 15:42:25;;;;;;;1.10;1.10;;;9.00;49.00;;;;;;6214379;28;20293;-76
2022/04/15 15:45:31;;;;;;;1.10;1.00;;;8.90;48.60;;;;;;6214726;28;20505;-76
2022/04/15 15:48:37;;;;;;;0.85;0.85;;;8.90;47.90;;;;;;6214438;28;20310;-75
2022/04/15 15:51:43;;;;;;;0.90;0.90;;;8.90;47.80;;;;;;6229710;28;20444;-76
2022/04/15 15:54:48;;;;;;;0.80;0.80;;;8.90;48.40;;;;;;6214619;28;20297;-75
2022/04/15 15:57:55;;;;;;;0.90;0.90;;;8.90;48.70;;;;;;6214546;28;20297;-75
2022/04/15 16:01:00;;;;;;;0.95;0.95;;;8.80;49.10;;;;;;6214920;28;20548;-78
2022/04/15 16:04:06;;;;;;;0.95;0.90;;;8.80;49.80;;;;;;6214249;28;20293;-76
2022/04/15 16:07:12;;;;;;;1.17;1.08;;;8.70;49.20;;;;;;6214241;28;20273;-75
2022/04/15 16:10:17;;;;;;;0.95;0.95;;;8.70;49.70;;;;;;6222755;28;20288;-78
2022/04/15 16:13:24;;;;;;;0.77;0.77;;;8.70;49.10;;;;;;6237855;28;20299;-76
2022/04/15 16:16:29;;;;;;;2.05;0.90;;;8.60;49.80;;;;;;6238094;28;20272;-75
2022/04/15 16:19:35;;;;;;;1.05;1.05;;;8.60;50.40;;;;;;6238037;28;20296;-77
2022/04/15 16:22:40;;;;;;;1.42;1.30;;;8.50;50.60;;;;;;6238067;28;20295;-75
2022/04/15 16:25:46;;;;;;;2.47;1.20;;;8.50;50.70;;;;;;6237950;28;20273;-75
2022/04/15 16:28:52;;;;;;;0.80;0.80;;;8.50;51.50;;;;;;6237631;28;20455;-76
2022/04/15 16:31:57;;;;;;;1.17;1.17;;;8.40;52.20;;;;;;6237977;28;20317;-76
2022/04/15 16:35:04;;;;;;;1.25;1.20;;;8.40;52.10;;;;;;6237268;28;20280;-75
2022/04/15 16:38:13;;;;;;;0.88;0.80;;;8.30;52.70;;;;;;6237251;28;20296;-76
2022/04/15 16:41:25;;;;;;;1.40;1.40;;;8.30;52.40;;;;;;6237442;28;20552;-75